Time;durP1;ratioP1;P1;durP2;ratioP2;P2;SDS_P1;SDS_P2;PMS_P1;PMS_P2;Temp;Humidity;BMP_temperature;BMP_pressure;BME280_temperature;BME280_humidity;BME280_pressure;Samples;Min_cycle;Max_cycle;Signal;HPM_P1;HPM_P2
2023/11/06 00:01:29;;;;;;;0.17;0.10;;;10.90;99.90;;;;;;4099375;28;20758;-90
2023/11/06 00:03:29;;;;;;;1.52;0.38;;;10.90;99.90;;;;;;4101699;29;20285;-94
2023/11/06 00:05:30;;;;;;;1.38;0.10;;;10.80;99.90;;;;;;4102929;29;20187;-93
2023/11/06 00:07:31;;;;;;;2.17;0.30;;;10.70;99.90;;;;;;4103787;28;20191;-95
2023/11/06 00:09:32;;;;;;;1.00;0.25;;;10.70;99.90;;;;;;4102898;29;20261;-95
2023/11/06 00:11:35;;;;;;;1.05;0.22;;;10.70;99.90;;;;;;4103731;28;20190;-96
2023/11/06 00:13:36;;;;;;;0.52;0.15;;;10.60;99.90;;;;;;4104678;28;20222;-94
2023/11/06 00:15:37;;;;;;;0.63;0.28;;;10.60;99.90;;;;;;4119341;28;20256;-95
2023/11/06 00:17:38;;;;;;;3.03;0.20;;;10.60;99.90;;;;;;4104000;29;20642;-92
2023/11/06 00:19:39;;;;;;;6.40;1.08;;;10.50;99.90;;;;;;4104354;29;20207;-91
2023/11/06 00:21:40;;;;;;;0.20;0.10;;;10.40;99.90;;;;;;4104652;29;20218;-95
2023/11/06 00:23:41;;;;;;;1.65;0.28;;;10.40;99.90;;;;;;4103984;28;20187;-95
2023/11/06 00:25:42;;;;;;;0.50;0.20;;;10.40;99.90;;;;;;4118832;28;20179;-96
2023/11/06 00:27:43;;;;;;;0.80;0.20;;;10.50;99.90;;;;;;4102856;29;20209;-91
2023/11/06 00:29:43;;;;;;;0.28;0.10;;;10.50;99.90;;;;;;4119656;28;20198;-90
2023/11/06 00:31:44;;;;;;;2.53;0.32;;;10.50;99.90;;;;;;4103363;29;20582;-91
2023/11/06 00:33:45;;;;;;;0.22;0.10;;;10.60;99.90;;;;;;4120096;28;20657;-91
2023/11/06 00:35:46;;;;;;;0.50;0.20;;;10.50;99.90;;;;;;4103894;29;20190;-90
2023/11/06 00:37:47;;;;;;;1.90;0.20;;;10.50;99.90;;;;;;4118609;28;20336;-91
2023/11/06 00:39:47;;;;;;;1.10;0.30;;;10.60;99.90;;;;;;4102979;29;20206;-91
2023/11/06 00:41:48;;;;;;;0.20;0.10;;;10.40;99.90;;;;;;4106473;29;20231;-93
2023/11/06 00:43:49;;;;;;;2.92;0.40;;;10.30;99.90;;;;;;4123427;28;20209;-90
2023/11/06 00:45:50;;;;;;;4.38;0.10;;;10.20;99.90;;;;;;4121374;28;20174;-91
2023/11/06 00:47:51;;;;;;;3.20;0.10;;;10.20;99.90;;;;;;4103898;29;20179;-90
2023/11/06 00:49:52;;;;;;;1.45;0.30;;;10.10;99.90;;;;;;4102543;29;20686;-95
2023/11/06 00:51:53;;;;;;;2.03;0.80;;;10.10;99.90;;;;;;4118278;28;20196;-95
2023/11/06 00:53:54;;;;;;;2.17;0.50;;;10.20;99.90;;;;;;4102603;29;20291;-96
2023/11/06 00:55:55;;;;;;;0.17;0.15;;;10.20;99.90;;;;;;4102538;29;20246;-94
2023/11/06 00:57:56;;;;;;;0.85;0.20;;;10.20;99.90;;;;;;4103481;28;20570;-90
2023/11/06 00:59:57;;;;;;;1.23;0.45;;;10.20;99.90;;;;;;4103151;28;20670;-90
2023/11/06 01:01:58;;;;;;;0.15;0.10;;;10.20;99.90;;;;;;4102245;28;20329;-93
2023/11/06 01:03:59;;;;;;;0.10;0.10;;;10.10;99.90;;;;;;4101678;28;20236;-90
2023/11/06 01:06:00;;;;;;;0.93;0.25;;;10.10;99.90;;;;;;4119426;28;20193;-91
2023/11/06 01:08:04;;;;;;;1.65;0.30;;;10.10;99.90;;;;;;4103905;28;20211;-90
2023/11/06 01:10:07;;;;;;;0.50;0.15;;;10.10;99.90;;;;;;4102068;29;20221;-92
2023/11/06 01:12:09;;;;;;;0.52;0.20;;;10.00;99.90;;;;;;4119246;28;20189;-95
2023/11/06 01:14:09;;;;;;;3.38;0.63;;;10.10;99.90;;;;;;4101963;28;20179;-95
2023/11/06 01:16:10;;;;;;;0.68;0.28;;;10.10;99.90;;;;;;4118619;28;20669;-93
2023/11/06 01:18:11;;;;;;;0.93;0.22;;;10.10;99.90;;;;;;4102812;29;20212;-91
2023/11/06 01:20:12;;;;;;;1.48;0.20;;;10.10;99.90;;;;;;4102150;29;20187;-93
2023/11/06 01:22:13;;;;;;;4.68;0.65;;;10.10;99.90;;;;;;4102391;29;20687;-91
2023/11/06 01:24:14;;;;;;;0.52;0.20;;;10.30;99.90;;;;;;4102949;29;20195;-95
2023/11/06 01:26:15;;;;;;;3.25;0.40;;;10.20;99.90;;;;;;4103428;29;20566;-90
2023/11/06 01:28:16;;;;;;;1.83;0.20;;;10.20;99.90;;;;;;4102817;28;20757;-91
2023/11/06 01:30:18;;;;;;;2.30;0.52;;;10.20;99.90;;;;;;4102453;28;20175;-90
2023/11/06 01:32:20;;;;;;;0.98;0.17;;;10.30;99.90;;;;;;4103369;28;20199;-94
2023/11/06 01:34:21;;;;;;;0.00;0.00;;;10.30;99.90;;;;;;4102698;29;20179;-95
2023/11/06 01:36:22;;;;;;;0.13;0.13;;;10.20;99.90;;;;;;4102247;29;20719;-91
2023/11/06 01:38:23;;;;;;;1.10;0.20;;;10.30;99.90;;;;;;4101891;28;20237;-91
2023/11/06 01:40:24;;;;;;;1.30;0.35;;;10.20;99.90;;;;;;4117495;28;20193;-91
2023/11/06 01:42:26;;;;;;;4.55;0.55;;;10.20;99.90;;;;;;4103887;29;20766;-95
2023/11/06 01:44:27;;;;;;;0.05;0.00;;;10.30;99.90;;;;;;4102596;29;20651;-90
2023/11/06 01:46:28;;;;;;;1.13;0.22;;;10.10;99.90;;;;;;4102590;29;20233;-94
2023/11/06 01:48:29;;;;;;;4.28;0.43;;;10.00;99.90;;;;;;4104040;29;20218;-91
2023/11/06 01:50:33;;;;;;;1.35;0.20;;;9.90;99.90;;;;;;4102112;29;20186;-92
2023/11/06 01:52:34;;;;;;;0.30;0.20;;;9.90;99.90;;;;;;4104184;29;20270;-95
2023/11/06 01:54:35;;;;;;;0.77;0.20;;;9.90;99.90;;;;;;4106916;29;20702;-91
2023/11/06 01:56:37;;;;;;;0.25;0.00;;;9.90;99.90;;;;;;4102615;29;20197;-91
2023/11/06 01:58:38;;;;;;;3.67;0.03;;;9.90;99.90;;;;;;4119461;28;20190;-91
2023/11/06 02:00:48;;;;;;;0.13;0.10;;;9.80;99.90;;;;;;4104199;29;20187;-90
2023/11/06 02:02:49;;;;;;;0.82;0.20;;;9.80;99.90;;;;;;4104386;29;20237;-91
2023/11/06 02:04:51;;;;;;;0.05;0.00;;;9.70;99.90;;;;;;4118976;28;20190;-92
2023/11/06 02:06:53;;;;;;;0.30;0.13;;;9.70;99.90;;;;;;4104459;29;20595;-90
2023/11/06 02:08:54;;;;;;;4.38;0.35;;;9.70;99.90;;;;;;4102308;29;20211;-91
2023/11/06 02:10:54;;;;;;;4.78;0.17;;;9.70;99.90;;;;;;4119821;28;20269;-91
2023/11/06 02:12:55;;;;;;;1.77;0.43;;;9.80;99.90;;;;;;4103340;29;20179;-89
2023/11/06 02:14:57;;;;;;;4.53;0.35;;;9.80;99.90;;;;;;4101115;28;20178;-92
2023/11/06 02:16:58;;;;;;;4.13;0.40;;;9.90;99.90;;;;;;4120186;28;20241;-90
2023/11/06 02:18:58;;;;;;;0.57;0.20;;;10.00;99.90;;;;;;4102052;29;20206;-95
2023/11/06 02:20:59;;;;;;;3.35;0.43;;;9.90;99.90;;;;;;4103902;29;20187;-91
2023/11/06 02:23:03;;;;;;;0.45;0.10;;;10.00;99.90;;;;;;4101521;29;20175;-91
2023/11/06 02:25:04;;;;;;;0.93;0.20;;;10.00;99.90;;;;;;4101198;28;20202;-90
2023/11/06 02:27:05;;;;;;;2.42;0.32;;;10.00;99.90;;;;;;4100841;29;20242;-90
2023/11/06 02:29:06;;;;;;;0.10;0.10;;;10.00;99.90;;;;;;4101662;29;20199;-91
2023/11/06 02:31:07;;;;;;;2.28;0.35;;;9.90;99.90;;;;;;4100934;29;20183;-96
2023/11/06 02:33:07;;;;;;;0.75;0.30;;;9.90;99.90;;;;;;4100523;28;20659;-94
2023/11/06 02:35:08;;;;;;;0.00;0.00;;;10.00;99.90;;;;;;4116497;28;20178;-89
2023/11/06 02:37:09;;;;;;;2.95;0.82;;;10.10;99.90;;;;;;4100600;29;20190;-90
2023/11/06 02:39:10;;;;;;;0.10;0.10;;;10.10;99.90;;;;;;4100475;28;20699;-90
2023/11/06 02:41:11;;;;;;;4.28;0.20;;;10.00;99.90;;;;;;4100486;29;20272;-91
2023/11/06 02:43:12;;;;;;;0.10;0.00;;;10.20;99.90;;;;;;4116559;28;20197;-94
2023/11/06 02:45:12;;;;;;;0.35;0.30;;;10.20;99.90;;;;;;4100512;28;20206;-93
2023/11/06 02:47:13;;;;;;;2.80;0.20;;;10.20;99.90;;;;;;4100529;29;20178;-96
2023/11/06 02:49:14;;;;;;;0.30;0.10;;;10.30;99.90;;;;;;4101513;29;20198;-92
2023/11/06 02:51:16;;;;;;;0.10;0.00;;;10.30;99.90;;;;;;4101682;29;20191;-90
2023/11/06 02:53:17;;;;;;;0.00;0.00;;;10.30;99.90;;;;;;4101774;29;20189;-90
2023/11/06 02:55:18;;;;;;;1.17;0.28;;;10.10;99.90;;;;;;4101412;29;20179;-90
2023/11/06 02:57:18;;;;;;;1.95;0.30;;;10.00;99.90;;;;;;4101785;29;20643;-91
2023/11/06 02:59:21;;;;;;;1.13;0.30;;;10.00;99.90;;;;;;4103108;28;20195;-90
2023/11/06 03:01:22;;;;;;;0.75;0.20;;;10.00;99.90;;;;;;4101211;29;20221;-96
2023/11/06 03:03:22;;;;;;;8.57;0.28;;;10.00;99.90;;;;;;4101683;29;20202;-96
2023/11/06 03:05:23;;;;;;;0.20;0.10;;;9.90;99.90;;;;;;4102026;29;20183;-95
2023/11/06 03:07:24;;;;;;;5.15;0.77;;;9.80;99.90;;;;;;4102871;29;20719;-95
2023/11/06 03:09:25;;;;;;;1.48;0.60;;;9.70;99.90;;;;;;4118688;28;20308;-95
2023/11/06 03:11:26;;;;;;;0.45;0.20;;;9.70;99.90;;;;;;4101409;29;20179;-89
2023/11/06 03:13:27;;;;;;;5.05;0.57;;;9.70;99.90;;;;;;4101590;28;20190;-90
2023/11/06 03:15:27;;;;;;;6.65;1.48;;;9.80;99.90;;;;;;4102435;28;20697;-95
2023/11/06 03:17:28;;;;;;;5.15;1.08;;;9.80;99.90;;;;;;4101671;29;20193;-90
2023/11/06 03:19:29;;;;;;;4.60;0.88;;;9.80;99.90;;;;;;4118161;28;20762;-90
2023/11/06 03:21:30;;;;;;;1.35;0.40;;;9.90;99.90;;;;;;4117927;28;20643;-90
2023/11/06 03:23:31;;;;;;;4.28;0.98;;;9.90;99.90;;;;;;4102186;29;20175;-91
2023/11/06 03:25:31;;;;;;;0.50;0.30;;;9.90;99.90;;;;;;4104384;29;20190;-96
2023/11/06 03:27:33;;;;;;;4.38;1.02;;;9.90;99.90;;;;;;4101725;29;20217;-89
2023/11/06 03:29:33;;;;;;;22.00;7.75;;;10.00;99.90;;;;;;4101149;28;20207;-90
2023/11/06 03:31:34;;;;;;;7.18;1.58;;;9.90;99.90;;;;;;4102526;28;20693;-89
2023/11/06 03:33:35;;;;;;;1.88;0.65;;;10.00;99.90;;;;;;4102378;29;20233;-91
2023/11/06 03:35:36;;;;;;;1.45;0.45;;;10.00;99.90;;;;;;4101148;28;20179;-90
2023/11/06 03:37:36;;;;;;;7.15;1.15;;;10.00;99.90;;;;;;4105470;28;20190;-90
2023/11/06 03:39:37;;;;;;;2.45;0.35;;;9.90;99.90;;;;;;4105772;29;20726;-90
2023/11/06 03:41:38;;;;;;;2.17;1.27;;;9.90;99.90;;;;;;4105891;29;20221;-90
2023/11/06 03:43:39;;;;;;;0.65;0.15;;;10.00;99.90;;;;;;4104983;29;20266;-90
2023/11/06 03:45:40;;;;;;;6.72;1.27;;;9.90;99.90;;;;;;4105018;29;20182;-90
2023/11/06 03:47:40;;;;;;;5.85;0.80;;;9.80;99.90;;;;;;4103939;29;20185;-89
2023/11/06 03:49:41;;;;;;;12.68;1.05;;;9.80;99.90;;;;;;4104729;28;20211;-90
2023/11/06 03:51:42;;;;;;;7.18;0.93;;;9.80;99.90;;;;;;4121709;28;20236;-90
2023/11/06 03:53:43;;;;;;;0.80;0.10;;;9.80;99.90;;;;;;4105238;29;20590;-90
2023/11/06 03:55:44;;;;;;;6.30;1.33;;;9.80;99.90;;;;;;4104938;28;20242;-90
2023/11/06 03:57:44;;;;;;;4.32;1.13;;;9.80;99.90;;;;;;4106007;29;20238;-95
2023/11/06 03:59:45;;;;;;;6.10;0.50;;;9.80;99.90;;;;;;4105798;29;20245;-92
2023/11/06 04:01:46;;;;;;;3.03;1.08;;;9.80;99.90;;;;;;4104760;28;20219;-91
2023/11/06 04:03:47;;;;;;;10.15;1.45;;;9.80;99.90;;;;;;4106006;29;20178;-95
2023/11/06 04:05:48;;;;;;;7.88;1.30;;;9.80;99.90;;;;;;4121770;28;20182;-96
2023/11/06 04:07:48;;;;;;;2.60;0.47;;;9.70;99.90;;;;;;4123411;28;20185;-90
2023/11/06 04:09:49;;;;;;;2.05;0.63;;;9.60;99.90;;;;;;4121932;28;20208;-90
2023/11/06 04:11:50;;;;;;;4.32;0.43;;;9.60;99.90;;;;;;4109182;28;20175;-90
2023/11/06 04:13:51;;;;;;;4.32;0.60;;;9.60;99.90;;;;;;4123454;28;20214;-96
2023/11/06 04:15:51;;;;;;;18.83;1.02;;;9.60;99.90;;;;;;4106550;28;20183;-94
2023/11/06 04:17:52;;;;;;;3.22;0.45;;;9.70;99.90;;;;;;4107193;29;20242;-96
2023/11/06 04:19:53;;;;;;;4.55;1.25;;;9.70;99.90;;;;;;4105862;29;20206;-95
2023/11/06 04:21:54;;;;;;;1.17;0.40;;;9.70;99.90;;;;;;4104471;28;20258;-91
2023/11/06 04:23:54;;;;;;;4.18;0.70;;;9.70;99.90;;;;;;4106465;29;20237;-90
2023/11/06 04:25:55;;;;;;;1.58;0.30;;;9.70;99.90;;;;;;4105178;29;20298;-89
2023/11/06 04:27:57;;;;;;;2.92;0.82;;;9.80;99.90;;;;;;4103184;29;20183;-93
2023/11/06 04:29:58;;;;;;;0.55;0.20;;;9.70;99.90;;;;;;4103681;29;20666;-91
2023/11/06 04:31:59;;;;;;;3.47;0.82;;;9.80;99.90;;;;;;4119433;28;20174;-96
2023/11/06 04:34:00;;;;;;;5.75;0.88;;;9.70;99.90;;;;;;4103345;29;20187;-90
2023/11/06 04:36:00;;;;;;;8.95;1.92;;;9.60;99.90;;;;;;4119394;28;20233;-90
2023/11/06 04:38:01;;;;;;;3.92;1.05;;;9.60;99.90;;;;;;4103948;29;20249;-90
2023/11/06 04:40:05;;;;;;;5.93;1.23;;;9.70;99.90;;;;;;4103486;28;20249;-89
2023/11/06 04:42:09;;;;;;;4.47;0.77;;;9.60;99.90;;;;;;4104528;29;20222;-90
2023/11/06 04:44:10;;;;;;;7.60;2.92;;;9.60;99.90;;;;;;4103656;29;20206;-91
2023/11/06 04:46:11;;;;;;;2.67;0.50;;;9.60;99.90;;;;;;4105074;29;20183;-95
2023/11/06 04:48:12;;;;;;;1.55;0.50;;;9.50;99.90;;;;;;4106396;28;20198;-89
2023/11/06 04:50:12;;;;;;;1.27;0.38;;;9.40;99.90;;;;;;4104493;29;20195;-90
2023/11/06 04:52:13;;;;;;;1.13;0.20;;;9.40;99.90;;;;;;4102896;28;20345;-89
2023/11/06 04:54:14;;;;;;;2.20;0.65;;;9.50;99.90;;;;;;4120680;28;20199;-91
2023/11/06 04:56:15;;;;;;;3.92;1.60;;;9.50;99.90;;;;;;4105270;29;20586;-93
2023/11/06 04:58:16;;;;;;;10.63;1.55;;;9.50;99.90;;;;;;4121273;28;20189;-95
2023/11/06 05:00:17;;;;;;;1.85;0.35;;;9.40;99.90;;;;;;4102722;29;20179;-89
2023/11/06 05:02:17;;;;;;;6.13;0.68;;;9.30;99.90;;;;;;4102741;28;20222;-89
2023/11/06 05:04:19;;;;;;;4.03;0.77;;;9.30;99.90;;;;;;4103403;29;20185;-90
2023/11/06 05:06:20;;;;;;;2.13;0.55;;;9.30;99.90;;;;;;4106510;29;20182;-90
2023/11/06 05:08:21;;;;;;;6.32;1.17;;;9.30;99.90;;;;;;4104139;29;20253;-95
2023/11/06 05:10:22;;;;;;;2.10;0.55;;;9.40;99.90;;;;;;4122407;28;20186;-95
2023/11/06 05:12:22;;;;;;;0.75;0.40;;;9.40;99.90;;;;;;4104195;29;20181;-90
2023/11/06 05:14:23;;;;;;;3.75;0.40;;;9.40;99.90;;;;;;4102700;29;20278;-90
2023/11/06 05:16:24;;;;;;;4.30;1.40;;;9.50;99.90;;;;;;4102067;28;20178;-91
2023/11/06 05:18:25;;;;;;;5.25;0.50;;;9.50;99.90;;;;;;4119238;28;20186;-95
2023/11/06 05:20:25;;;;;;;6.97;1.55;;;9.50;99.90;;;;;;4102911;29;20167;-90
2023/11/06 05:22:26;;;;;;;2.83;0.30;;;9.40;99.90;;;;;;4101749;29;20321;-91
2023/11/06 05:24:27;;;;;;;1.23;0.50;;;9.40;99.90;;;;;;4102734;28;20199;-90
2023/11/06 05:26:27;;;;;;;3.85;0.85;;;9.50;99.90;;;;;;4102381;29;20190;-94
2023/11/06 05:28:28;;;;;;;8.30;0.82;;;9.60;99.90;;;;;;4103656;29;20198;-96
2023/11/06 05:30:30;;;;;;;3.90;0.77;;;9.70;99.90;;;;;;4102722;29;20278;-91
2023/11/06 05:32:32;;;;;;;1.52;0.38;;;9.80;99.90;;;;;;4120883;28;20178;-90
2023/11/06 05:34:34;;;;;;;3.20;1.20;;;9.80;99.90;;;;;;4103679;29;20548;-95
2023/11/06 05:36:35;;;;;;;1.95;0.65;;;9.80;99.90;;;;;;4106019;29;20173;-89
2023/11/06 05:38:36;;;;;;;3.72;0.88;;;9.70;99.90;;;;;;4103690;28;20266;-94
2023/11/06 05:40:37;;;;;;;6.13;1.30;;;9.60;99.90;;;;;;4107948;28;20649;-90
2023/11/06 05:42:38;;;;;;;4.60;0.88;;;9.70;99.90;;;;;;4105701;29;20262;-90
2023/11/06 05:44:43;;;;;;;4.10;0.68;;;9.60;99.90;;;;;;4108001;28;20237;-90
2023/11/06 05:46:44;;;;;;;3.90;0.70;;;9.60;99.90;;;;;;4104042;28;20662;-96
2023/11/06 05:48:45;;;;;;;1.55;0.30;;;9.60;99.90;;;;;;4104048;29;20199;-92
2023/11/06 05:50:46;;;;;;;11.93;1.30;;;9.50;99.90;;;;;;4118700;28;20190;-90
2023/11/06 05:52:47;;;;;;;4.25;0.43;;;9.40;99.90;;;;;;4103471;29;20175;-95
2023/11/06 05:54:47;;;;;;;5.00;0.57;;;9.50;99.90;;;;;;4104197;29;20187;-89
2023/11/06 05:56:49;;;;;;;2.83;1.00;;;9.40;99.90;;;;;;4104210;29;20179;-95
2023/11/06 05:58:50;;;;;;;1.73;0.50;;;9.40;99.90;;;;;;4102119;29;20339;-90
2023/11/06 06:00:51;;;;;;;6.70;1.05;;;9.40;99.90;;;;;;4103763;28;20174;-90
2023/11/06 06:02:51;;;;;;;6.72;0.80;;;9.50;99.90;;;;;;4103380;28;20227;-90
2023/11/06 06:04:52;;;;;;;2.78;0.17;;;9.50;99.90;;;;;;4101630;28;20234;-95
2023/11/06 06:06:54;;;;;;;5.15;0.98;;;9.50;99.90;;;;;;4118825;28;20277;-94
2023/11/06 06:08:55;;;;;;;1.90;0.65;;;9.60;99.90;;;;;;4106718;29;20195;-96
2023/11/06 06:10:55;;;;;;;4.65;0.63;;;9.60;99.90;;;;;;4121169;28;20244;-91
2023/11/06 06:12:56;;;;;;;5.60;1.27;;;9.50;99.90;;;;;;4104367;29;20183;-89
2023/11/06 06:14:57;;;;;;;1.05;0.65;;;9.50;99.90;;;;;;4102296;28;20187;-90
2023/11/06 06:16:58;;;;;;;3.25;0.68;;;9.50;99.90;;;;;;4103861;29;20181;-90
2023/11/06 06:18:59;;;;;;;0.85;0.20;;;9.40;99.90;;;;;;4119571;28;20698;-91
2023/11/06 06:21:00;;;;;;;6.95;1.10;;;9.30;99.90;;;;;;4103819;29;20179;-96
2023/11/06 06:23:00;;;;;;;2.53;0.65;;;9.30;99.90;;;;;;4104011;29;20187;-88
2023/11/06 06:25:01;;;;;;;4.95;0.70;;;9.30;99.90;;;;;;4104719;28;20175;-91
2023/11/06 06:27:02;;;;;;;4.38;0.57;;;9.30;99.90;;;;;;4122667;28;20187;-90
2023/11/06 06:29:04;;;;;;;1.88;0.22;;;9.20;99.90;;;;;;4104778;29;20191;-93
2023/11/06 06:31:06;;;;;;;1.05;0.40;;;9.20;99.90;;;;;;4102149;29;20189;-90
2023/11/06 06:33:07;;;;;;;7.18;0.75;;;9.30;99.90;;;;;;4103875;29;20179;-95
2023/11/06 06:35:08;;;;;;;3.30;0.68;;;9.20;99.90;;;;;;4102444;28;20190;-92
2023/11/06 06:37:09;;;;;;;2.55;1.25;;;9.20;99.90;;;;;;4102299;28;20699;-89
2023/11/06 06:39:10;;;;;;;2.10;0.52;;;9.10;99.90;;;;;;4102699;28;20202;-91
2023/11/06 06:41:11;;;;;;;6.88;0.65;;;9.00;99.90;;;;;;4117572;28;20238;-90
2023/11/06 06:43:11;;;;;;;9.60;0.77;;;9.00;99.90;;;;;;4102830;29;20186;-90
2023/11/06 06:45:12;;;;;;;1.27;0.30;;;9.00;99.90;;;;;;4103162;29;20191;-90
2023/11/06 06:47:13;;;;;;;1.40;0.50;;;9.00;99.90;;;;;;4104253;29;20659;-94
2023/11/06 06:49:15;;;;;;;5.05;0.73;;;9.00;99.90;;;;;;4104517;28;20222;-90
2023/11/06 06:51:15;;;;;;;1.42;0.50;;;9.10;99.90;;;;;;4102570;29;20183;-90
2023/11/06 06:53:16;;;;;;;4.32;0.57;;;9.00;99.90;;;;;;4117876;28;20253;-91
2023/11/06 06:55:21;;;;;;;2.08;0.40;;;9.20;99.90;;;;;;4102614;29;20189;-95
2023/11/06 06:57:22;;;;;;;5.93;1.15;;;9.10;99.90;;;;;;4104196;29;20239;-95
2023/11/06 06:59:22;;;;;;;5.20;1.10;;;9.10;99.90;;;;;;4103211;29;20563;-90
2023/11/06 07:01:23;;;;;;;4.05;1.10;;;9.10;99.90;;;;;;4103197;29;20575;-94
2023/11/06 07:03:24;;;;;;;2.40;0.60;;;9.00;99.90;;;;;;4119492;28;20229;-95
2023/11/06 07:05:25;;;;;;;2.00;0.30;;;8.90;99.90;;;;;;4102230;29;20179;-95
2023/11/06 07:07:25;;;;;;;1.48;0.68;;;8.90;99.90;;;;;;4103521;28;20525;-93
2023/11/06 07:09:31;;;;;;;3.45;1.20;;;8.90;99.90;;;;;;4104267;29;20209;-90
2023/11/06 07:11:32;;;;;;;4.85;1.05;;;8.80;99.90;;;;;;4120237;28;20205;-91
2023/11/06 07:13:33;;;;;;;11.98;0.68;;;8.70;99.90;;;;;;4103354;29;20603;-89
2023/11/06 07:15:34;;;;;;;2.00;1.13;;;8.70;99.90;;;;;;4104496;29;20182;-94
2023/11/06 07:17:34;;;;;;;0.63;0.30;;;8.70;99.90;;;;;;4104334;29;20175;-96
2023/11/06 07:19:37;;;;;;;3.90;1.27;;;8.70;99.90;;;;;;4104033;29;20206;-90
2023/11/06 07:21:38;;;;;;;4.97;1.65;;;8.80;99.90;;;;;;4105138;29;20248;-90
2023/11/06 07:23:39;;;;;;;0.85;0.43;;;8.90;99.90;;;;;;4121660;28;20187;-91
2023/11/06 07:25:40;;;;;;;4.15;0.73;;;8.90;99.90;;;;;;4106471;29;20191;-91
2023/11/06 07:27:42;;;;;;;5.65;0.50;;;8.80;99.90;;;;;;4104210;29;20273;-96
2023/11/06 07:29:43;;;;;;;6.68;1.02;;;8.90;99.90;;;;;;4102222;28;20233;-88
2023/11/06 07:31:44;;;;;;;6.28;1.88;;;8.90;99.90;;;;;;4104639;29;20175;-95
2023/11/06 07:33:45;;;;;;;2.53;0.32;;;9.00;99.90;;;;;;4104192;29;20178;-94
2023/11/06 07:35:46;;;;;;;3.30;0.40;;;9.00;99.90;;;;;;4104111;29;20218;-96
2023/11/06 07:37:47;;;;;;;7.78;1.05;;;9.10;99.90;;;;;;4103523;29;20187;-90
2023/11/06 07:39:48;;;;;;;2.33;0.93;;;9.20;99.90;;;;;;4105092;29;20209;-89
2023/11/06 07:41:48;;;;;;;1.98;0.30;;;9.20;99.90;;;;;;4103117;29;20215;-93
2023/11/06 07:43:54;;;;;;;6.40;0.30;;;9.30;99.90;;;;;;4102259;28;20194;-91
2023/11/06 07:45:55;;;;;;;2.75;0.65;;;9.40;99.90;;;;;;4118842;28;20182;-90
2023/11/06 07:48:01;;;;;;;11.38;0.77;;;9.50;99.90;;;;;;4117360;28;20201;-91
2023/11/06 07:50:05;;;;;;;6.15;0.50;;;9.50;99.90;;;;;;4101028;29;20199;-89
2023/11/06 07:52:10;;;;;;;3.03;0.40;;;9.50;99.90;;;;;;4118683;28;20193;-92
2023/11/06 07:54:10;;;;;;;2.35;0.82;;;9.60;99.90;;;;;;4102664;29;20182;-90
2023/11/06 07:56:13;;;;;;;3.60;0.68;;;9.70;99.90;;;;;;4118540;28;20182;-96
2023/11/06 07:58:14;;;;;;;2.92;1.15;;;9.80;99.90;;;;;;4102209;29;20179;-89
2023/11/06 08:00:16;;;;;;;1.27;0.22;;;9.90;99.90;;;;;;4102138;29;20222;-89
2023/11/06 08:02:17;;;;;;;4.70;0.75;;;10.00;99.90;;;;;;4101160;29;20218;-90
2023/11/06 08:04:18;;;;;;;4.78;1.75;;;10.00;99.90;;;;;;4102926;29;20187;-89
2023/11/06 08:06:19;;;;;;;5.88;1.73;;;10.20;99.90;;;;;;4117808;28;20196;-90
2023/11/06 08:08:20;;;;;;;12.23;1.80;;;10.30;99.90;;;;;;4101261;29;20183;-90
2023/11/06 08:10:25;;;;;;;4.18;0.20;;;10.30;99.90;;;;;;4101212;29;20183;-90
2023/11/06 08:12:26;;;;;;;8.05;1.20;;;10.20;99.90;;;;;;4117015;28;20716;-89
2023/11/06 08:14:27;;;;;;;11.70;1.13;;;10.10;99.90;;;;;;4118059;28;20182;-95
2023/11/06 08:16:32;;;;;;;3.88;0.60;;;10.00;99.90;;;;;;4100802;29;20191;-89
2023/11/06 08:18:33;;;;;;;10.55;1.20;;;9.90;99.90;;;;;;4100520;29;20203;-89
2023/11/06 08:20:34;;;;;;;1.40;0.85;;;9.90;99.90;;;;;;4101974;29;20651;-95
2023/11/06 08:22:35;;;;;;;1.20;0.40;;;10.00;99.90;;;;;;4102568;28;20325;-89
2023/11/06 08:24:37;;;;;;;1.17;0.45;;;9.90;99.90;;;;;;4102924;29;20242;-90
2023/11/06 08:26:38;;;;;;;10.18;1.42;;;10.00;99.90;;;;;;4105859;29;20250;-93
2023/11/06 08:28:40;;;;;;;8.95;1.00;;;10.20;99.90;;;;;;4103910;29;20214;-93
2023/11/06 08:30:40;;;;;;;12.90;1.00;;;10.30;99.90;;;;;;4103589;29;20185;-91
2023/11/06 08:32:41;;;;;;;2.60;0.90;;;10.50;99.90;;;;;;4104309;29;20203;-90
2023/11/06 08:34:43;;;;;;;6.80;0.75;;;10.50;99.90;;;;;;4104237;29;20187;-90
2023/11/06 08:36:44;;;;;;;5.00;0.85;;;10.60;99.90;;;;;;4120598;28;20190;-90
2023/11/06 08:38:45;;;;;;;1.23;0.90;;;10.60;99.90;;;;;;4118987;28;20288;-91
2023/11/06 08:40:50;;;;;;;2.90;0.52;;;10.60;99.90;;;;;;4102869;29;20547;-90
2023/11/06 08:42:50;;;;;;;4.32;0.52;;;10.50;99.90;;;;;;4103032;29;20277;-96
2023/11/06 08:44:51;;;;;;;5.57;0.93;;;10.40;99.90;;;;;;4103980;28;20682;-90
2023/11/06 08:46:53;;;;;;;3.40;0.93;;;10.40;99.90;;;;;;4123965;28;20254;-90
2023/11/06 08:48:54;;;;;;;4.75;0.70;;;10.50;99.90;;;;;;4104480;28;20269;-91
2023/11/06 08:50:54;;;;;;;1.02;0.28;;;10.60;99.90;;;;;;4121203;28;20203;-91
2023/11/06 08:52:56;;;;;;;8.23;1.50;;;10.60;99.90;;;;;;4105749;29;20218;-91
2023/11/06 08:54:57;;;;;;;0.13;0.10;;;10.60;99.90;;;;;;4103764;29;20652;-91
2023/11/06 08:56:59;;;;;;;2.60;0.65;;;10.70;99.90;;;;;;4121090;28;20670;-91
2023/11/06 08:59:00;;;;;;;4.05;0.95;;;10.80;99.90;;;;;;4118598;28;20225;-91
2023/11/06 09:01:01;;;;;;;5.43;1.10;;;10.80;99.90;;;;;;4102793;28;20283;-90
2023/11/06 09:03:03;;;;;;;4.32;0.75;;;10.70;99.90;;;;;;4103406;28;20455;-91
2023/11/06 09:05:05;;;;;;;3.60;0.90;;;10.90;99.90;;;;;;4103506;29;20189;-96
2023/11/06 09:07:07;;;;;;;4.80;1.35;;;10.90;99.90;;;;;;4103880;29;20238;-92
2023/11/06 09:09:10;;;;;;;0.50;0.32;;;11.00;99.90;;;;;;4106871;29;20298;-96
2023/11/06 09:11:11;;;;;;;2.05;1.05;;;11.10;99.90;;;;;;4103409;29;20360;-91
2023/11/06 09:13:13;;;;;;;1.17;0.50;;;11.20;99.90;;;;;;4119299;28;20186;-91
2023/11/06 09:15:14;;;;;;;2.08;0.43;;;11.00;99.90;;;;;;4103127;29;20663;-91
2023/11/06 09:17:15;;;;;;;2.25;0.30;;;11.00;99.90;;;;;;4103940;29;20659;-95
2023/11/06 09:19:17;;;;;;;0.80;0.43;;;11.20;99.90;;;;;;4102887;29;20297;-90
2023/11/06 09:21:19;;;;;;;4.20;0.50;;;11.20;99.90;;;;;;4105330;29;20194;-90
2023/11/06 09:23:21;;;;;;;1.85;0.50;;;11.10;99.90;;;;;;4102881;29;20186;-95
2023/11/06 09:25:22;;;;;;;5.00;0.75;;;11.10;99.90;;;;;;4104390;29;20258;-96
2023/11/06 09:27:23;;;;;;;0.80;0.43;;;11.20;99.90;;;;;;4121414;28;20193;-95
2023/11/06 09:29:23;;;;;;;4.13;0.68;;;11.20;99.90;;;;;;4102231;29;20706;-96
2023/11/06 09:31:24;;;;;;;4.97;0.85;;;10.90;99.90;;;;;;4105275;29;20234;-96
2023/11/06 09:33:25;;;;;;;0.50;0.20;;;10.90;99.90;;;;;;4103235;29;20229;-95
2023/11/06 09:35:27;;;;;;;5.53;0.60;;;10.90;99.90;;;;;;4103209;28;20586;-95
2023/11/06 09:37:28;;;;;;;5.22;0.40;;;11.00;99.90;;;;;;4105739;29;20179;-96
2023/11/06 09:39:28;;;;;;;5.82;0.65;;;11.20;99.90;;;;;;4106775;29;20201;-90
2023/11/06 09:41:29;;;;;;;4.10;0.63;;;11.40;99.90;;;;;;4106437;29;20214;-91
2023/11/06 09:43:30;;;;;;;7.57;1.13;;;11.50;99.90;;;;;;4104829;29;20187;-95
2023/11/06 09:45:31;;;;;;;13.15;1.10;;;11.70;99.90;;;;;;4104686;29;20647;-91
2023/11/06 09:47:34;;;;;;;1.23;0.47;;;11.80;99.90;;;;;;4118422;28;20179;-95
2023/11/06 09:50:05;;;;;;;6.53;0.38;;;11.80;99.90;;;;;;4120830;28;20709;-91
2023/11/06 09:52:06;;;;;;;2.08;0.55;;;12.10;99.90;;;;;;4118392;28;20185;-89
2023/11/06 09:54:11;;;;;;;7.07;0.45;;;12.30;99.90;;;;;;4120971;28;20178;-95
2023/11/06 09:56:11;;;;;;;6.57;0.60;;;12.50;99.90;;;;;;4103236;29;20277;-93
2023/11/06 09:58:12;;;;;;;2.30;0.35;;;12.50;99.90;;;;;;4118099;28;20174;-91
2023/11/06 10:00:16;;;;;;;1.00;0.43;;;12.40;99.90;;;;;;4120877;28;20190;-90
2023/11/06 10:02:22;;;;;;;4.00;0.45;;;12.20;99.90;;;;;;4105767;28;20222;-94
2023/11/06 10:04:24;;;;;;;2.80;1.17;;;12.10;99.90;;;;;;4120180;28;20194;-89
2023/11/06 10:06:24;;;;;;;0.20;0.20;;;11.80;99.90;;;;;;4110671;28;20715;-92
2023/11/06 10:11:24;;;;;;;6.53;1.52;;;11.70;99.90;;;;;;4129229;28;20201;-88
2023/11/06 10:13:26;;;;;;;1.33;0.60;;;11.70;99.90;;;;;;4130542;28;20171;-95
2023/11/06 10:15:33;;;;;;;2.42;0.82;;;11.60;99.90;;;;;;4107445;28;20291;-89
2023/11/06 10:17:34;;;;;;;1.00;0.47;;;11.60;99.90;;;;;;4112983;28;20187;-89
2023/11/06 10:19:35;;;;;;;0.95;0.40;;;11.80;99.90;;;;;;4102337;29;20211;-88
2023/11/06 10:21:40;;;;;;;3.88;0.50;;;11.80;99.90;;;;;;4085805;29;20227;-88
2023/11/06 10:23:43;;;;;;;8.32;0.47;;;11.80;99.90;;;;;;4128711;28;20198;-89
2023/11/06 10:25:44;;;;;;;4.82;0.70;;;11.80;99.90;;;;;;4107628;29;20193;-88
2023/11/06 10:27:45;;;;;;;2.75;0.50;;;12.00;99.90;;;;;;4093594;29;20195;-88
2023/11/06 10:30:04;;;;;;;12.50;0.68;;;12.00;99.90;;;;;;4106689;29;20674;-89
2023/11/06 10:32:06;;;;;;;2.53;0.77;;;12.10;99.90;;;;;;4104139;29;20187;-91
2023/11/06 10:34:37;;;;;;;2.10;0.55;;;12.20;99.90;;;;;;4116447;28;20189;-90
2023/11/06 10:36:37;;;;;;;0.90;0.40;;;12.10;99.90;;;;;;4087508;29;20191;-95
2023/11/06 10:38:40;;;;;;;1.35;0.50;;;12.00;99.90;;;;;;4088613;29;20232;-96